Time;durP1;ratioP1;P1;durP2;ratioP2;P2;SDS_P1;SDS_P2;PMS_P1;PMS_P2;Temp;Humidity;BMP_temperature;BMP_pressure;BME280_temperature;BME280_humidity;BME280_pressure;Samples;Min_cycle;Max_cycle;Signal;HPM_P1;HPM_P2
2021/01/31 00:01:34;;;;;;;3.63;2.63;;;;;;;;;;5089147;28;20609;-48
2021/01/31 00:04:00;;;;;;;5.30;3.08;;;;;;;;;;5072187;28;20190;-48
2021/01/31 00:06:26;;;;;;;3.38;2.70;;;;;;;;;;5070866;28;20218;-48
2021/01/31 00:08:52;;;;;;;3.92;2.78;;;;;;;;;;5057618;28;20210;-48
2021/01/31 00:11:18;;;;;;;3.83;2.88;;;;;;;;;;5084294;28;20204;-48
2021/01/31 00:13:45;;;;;;;7.85;3.05;;;;;;;;;;5077108;28;20493;-48
2021/01/31 00:16:12;;;;;;;4.10;2.78;;;;;;;;;;5089523;28;20182;-48
2021/01/31 00:18:38;;;;;;;3.08;2.78;;;;;;;;;;5070437;28;20860;-48
2021/01/31 00:21:04;;;;;;;3.10;2.80;;;;;;;;;;5067213;28;20216;-48
2021/01/31 00:23:30;;;;;;;3.97;2.90;;;;;;;;;;5087848;28;20184;-48
2021/01/31 00:25:56;;;;;;;3.78;3.00;;;;;;;;;;5061383;28;20310;-47
2021/01/31 00:28:23;;;;;;;4.45;3.03;;;;;;;;;;5089111;28;20336;-48
2021/01/31 00:30:50;;;;;;;4.72;3.28;;;;;;;;;;5082813;28;20363;-48
2021/01/31 00:33:18;;;;;;;4.57;3.33;;;;;;;;;;5074732;28;20210;-48
2021/01/31 00:35:44;;;;;;;3.75;3.03;;;;;;;;;;5064093;28;20191;-47
2021/01/31 00:38:11;;;;;;;3.70;3.17;;;;;;;;;;5067388;28;20187;-48
2021/01/31 00:40:37;;;;;;;3.10;2.80;;;;;;;;;;5068462;28;20259;-48
2021/01/31 00:43:04;;;;;;;3.15;2.83;;;;;;;;;;5082830;28;20182;-48
2021/01/31 00:45:30;;;;;;;3.20;2.90;;;;;;;;;;5070156;28;20477;-48
2021/01/31 00:47:57;;;;;;;4.00;3.20;;;;;;;;;;5071070;28;20178;-48
2021/01/31 00:50:41;;;;;;;3.00;2.70;;;;;;;;;;5067825;28;20178;-48
2021/01/31 00:53:08;;;;;;;4.40;3.13;;;;;;;;;;5055055;28;20186;-48
2021/01/31 00:55:35;;;;;;;3.85;3.55;;;;;;;;;;5071066;28;20179;-48
2021/01/31 00:58:01;;;;;;;3.75;3.03;;;;;;;;;;5072141;28;20285;-48
2021/01/31 01:00:31;;;;;;;3.38;2.95;;;;;;;;;;5071980;28;20178;-49
2021/01/31 01:02:58;;;;;;;5.55;3.17;;;;;;;;;;5070861;28;20193;-48
2021/01/31 01:05:25;;;;;;;4.15;3.13;;;;;;;;;;5062056;28;20252;-48
2021/01/31 01:07:51;;;;;;;4.90;3.83;;;;;;;;;;5072815;28;20182;-48
2021/01/31 01:10:19;;;;;;;3.80;3.15;;;;;;;;;;5070977;28;20546;-48
2021/01/31 01:12:45;;;;;;;3.58;3.22;;;;;;;;;;5054998;28;20237;-48
2021/01/31 01:15:12;;;;;;;4.40;3.22;;;;;;;;;;5057214;28;20561;-48
2021/01/31 01:17:38;;;;;;;3.45;3.15;;;;;;;;;;5061680;28;20192;-48
2021/01/31 01:20:06;;;;;;;4.03;3.60;;;;;;;;;;5061324;28;20629;-48
2021/01/31 01:22:32;;;;;;;3.25;2.95;;;;;;;;;;5057720;28;20705;-48
2021/01/31 01:25:02;;;;;;;3.78;3.28;;;;;;;;;;5052357;28;20269;-48
2021/01/31 01:27:28;;;;;;;3.60;2.90;;;;;;;;;;5053722;28;20175;-48
2021/01/31 01:29:54;;;;;;;3.42;3.10;;;;;;;;;;5052486;28;20185;-48
2021/01/31 01:32:20;;;;;;;3.45;3.15;;;;;;;;;;5052491;28;20206;-48
2021/01/31 01:34:46;;;;;;;4.88;3.70;;;;;;;;;;5052325;28;20218;-48
2021/01/31 01:37:13;;;;;;;4.53;3.28;;;;;;;;;;5052745;28;20229;-48
2021/01/31 01:39:39;;;;;;;3.45;3.15;;;;;;;;;;5052702;28;20211;-48
2021/01/31 01:42:09;;;;;;;3.28;2.97;;;;;;;;;;5054394;28;20226;-48
2021/01/31 01:44:35;;;;;;;3.60;3.30;;;;;;;;;;5067294;28;20182;-48
2021/01/31 01:47:03;;;;;;;3.70;3.40;;;;;;;;;;5052895;28;20207;-48
2021/01/31 01:49:30;;;;;;;3.22;2.92;;;;;;;;;;5058113;28;20241;-48
2021/01/31 01:52:02;;;;;;;3.92;3.10;;;;;;;;;;5064902;28;20558;-48
2021/01/31 01:54:31;;;;;;;3.40;3.03;;;;;;;;;;5056269;28;20183;-48
2021/01/31 01:57:00;;;;;;;3.65;3.10;;;;;;;;;;5053922;28;20187;-48
2021/01/31 01:59:29;;;;;;;3.10;2.90;;;;;;;;;;5054112;28;20664;-48
2021/01/31 02:02:21;;;;;;;3.45;3.15;;;;;;;;;;5053356;28;20205;-48
2021/01/31 02:04:48;;;;;;;3.60;3.30;;;;;;;;;;5061782;28;20198;-48
2021/01/31 02:07:14;;;;;;;2.92;2.70;;;;;;;;;;5074738;28;20182;-48
2021/01/31 02:09:42;;;;;;;3.30;3.00;;;;;;;;;;5070600;28;20190;-48
2021/01/31 02:12:08;;;;;;;3.35;3.00;;;;;;;;;;5069017;28;20263;-48
2021/01/31 02:14:36;;;;;;;3.70;3.22;;;;;;;;;;5069847;28;20195;-48
2021/01/31 02:17:06;;;;;;;3.47;3.17;;;;;;;;;;5073938;28;20209;-48
2021/01/31 02:19:38;;;;;;;3.22;2.92;;;;;;;;;;5070090;28;20441;-49
2021/01/31 02:22:23;;;;;;;3.28;2.97;;;;;;;;;;5057080;28;20195;-48
2021/01/31 02:25:09;;;;;;;3.30;3.00;;;;;;;;;;5054659;28;20459;-48
2021/01/31 02:27:38;;;;;;;3.38;3.08;;;;;;;;;;5056403;28;20175;-48
2021/01/31 02:30:07;;;;;;;3.78;2.67;;;;;;;;;;5056226;28;20409;-48
2021/01/31 02:32:45;;;;;;;2.97;2.67;;;;;;;;;;5062076;28;20183;-48
2021/01/31 02:35:16;;;;;;;3.13;2.83;;;;;;;;;;5056907;28;20186;-48
2021/01/31 02:37:51;;;;;;;3.20;2.90;;;;;;;;;;5055666;28;20190;-47
2021/01/31 02:40:25;;;;;;;2.92;2.63;;;;;;;;;;5056356;28;20186;-48
2021/01/31 02:43:11;;;;;;;3.75;2.97;;;;;;;;;;5055493;28;20183;-48
2021/01/31 02:45:44;;;;;;;2.92;2.47;;;;;;;;;;5069384;28;20207;-48
2021/01/31 02:48:14;;;;;;;3.40;3.10;;;;;;;;;;5059792;28;20584;-48
2021/01/31 02:50:45;;;;;;;2.83;2.50;;;;;;;;;;5066867;28;20186;-48
2021/01/31 02:53:18;;;;;;;3.13;2.72;;;;;;;;;;5071417;28;20542;-48
2021/01/31 02:55:46;;;;;;;2.97;2.75;;;;;;;;;;5074281;28;20550;-48
2021/01/31 02:58:20;;;;;;;2.90;2.67;;;;;;;;;;5074969;28;20186;-48
2021/01/31 03:00:50;;;;;;;2.90;2.70;;;;;;;;;;5059771;28;20198;-49
2021/01/31 03:03:32;;;;;;;2.85;2.65;;;;;;;;;;5059035;28;20191;-49
2021/01/31 03:05:59;;;;;;;3.03;2.78;;;;;;;;;;5054588;28;20218;-48
2021/01/31 03:08:33;;;;;;;2.97;2.67;;;;;;;;;;5064530;28;20558;-48
2021/01/31 03:11:04;;;;;;;2.80;2.60;;;;;;;;;;5075139;28;20858;-48
2021/01/31 03:13:29;;;;;;;2.75;2.55;;;;;;;;;;5070310;28;20182;-48
2021/01/31 03:15:59;;;;;;;3.17;2.88;;;;;;;;;;5053969;28;20270;-48
2021/01/31 03:18:30;;;;;;;2.83;2.63;;;;;;;;;;5060569;28;20233;-48
2021/01/31 03:21:03;;;;;;;2.63;2.42;;;;;;;;;;5062346;28;20198;-48
2021/01/31 03:23:29;;;;;;;3.10;2.80;;;;;;;;;;5074290;28;20195;-48
2021/01/31 03:25:59;;;;;;;3.40;3.00;;;;;;;;;;5074394;28;20633;-48
2021/01/31 03:28:25;;;;;;;2.70;2.50;;;;;;;;;;5062694;28;20187;-48
2021/01/31 03:30:51;;;;;;;2.80;2.50;;;;;;;;;;5054988;28;20187;-48
2021/01/31 03:33:20;;;;;;;2.78;2.50;;;;;;;;;;5058617;28;20232;-48
2021/01/31 03:35:48;;;;;;;3.33;2.90;;;;;;;;;;5054150;28;20454;-48
2021/01/31 03:38:13;;;;;;;2.83;2.60;;;;;;;;;;5055552;28;20795;-48
2021/01/31 03:40:41;;;;;;;2.92;2.72;;;;;;;;;;5054292;28;20245;-48
2021/01/31 03:43:07;;;;;;;2.95;2.75;;;;;;;;;;5071802;28;20217;-48
2021/01/31 03:45:37;;;;;;;2.90;2.70;;;;;;;;;;5072762;28;20229;-48
2021/01/31 03:48:08;;;;;;;2.80;2.60;;;;;;;;;;5056873;28;20270;-48
2021/01/31 03:50:34;;;;;;;2.70;2.50;;;;;;;;;;5062744;28;20215;-48
2021/01/31 03:53:01;;;;;;;2.78;2.58;;;;;;;;;;5055298;28;20175;-48
2021/01/31 03:55:27;;;;;;;2.78;2.58;;;;;;;;;;5069293;28;20246;-48
2021/01/31 03:58:03;;;;;;;3.10;2.80;;;;;;;;;;5058548;28;20266;-48
2021/01/31 04:00:35;;;;;;;2.80;2.60;;;;;;;;;;5056873;28;20245;-48
2021/01/31 04:03:09;;;;;;;2.83;2.60;;;;;;;;;;5071183;28;20244;-48
2021/01/31 04:05:36;;;;;;;2.78;2.58;;;;;;;;;;5066696;28;20194;-48
2021/01/31 04:08:05;;;;;;;2.90;2.70;;;;;;;;;;5072997;28;20557;-48
2021/01/31 04:10:31;;;;;;;3.28;2.80;;;;;;;;;;5061347;28;20266;-48
2021/01/31 04:12:58;;;;;;;2.65;2.45;;;;;;;;;;5056273;28;20183;-48
2021/01/31 04:15:27;;;;;;;2.70;2.50;;;;;;;;;;5073270;28;20428;-48
2021/01/31 04:17:53;;;;;;;2.72;2.53;;;;;;;;;;5055082;28;20190;-48
2021/01/31 04:20:19;;;;;;;3.17;2.88;;;;;;;;;;5071152;28;20182;-48
2021/01/31 04:22:45;;;;;;;2.85;2.65;;;;;;;;;;5071200;28;20217;-48
2021/01/31 04:25:11;;;;;;;2.92;2.63;;;;;;;;;;5071774;28;20202;-48
2021/01/31 04:27:37;;;;;;;2.67;2.47;;;;;;;;;;5060820;28;20228;-48
2021/01/31 04:30:05;;;;;;;3.22;2.92;;;;;;;;;;5073593;28;20187;-48
2021/01/31 04:32:31;;;;;;;2.60;2.40;;;;;;;;;;5058291;28;20195;-48
2021/01/31 04:34:57;;;;;;;2.80;2.60;;;;;;;;;;5072091;28;20182;-49
2021/01/31 04:37:23;;;;;;;2.78;2.42;;;;;;;;;;5069076;28;20573;-48
2021/01/31 04:39:49;;;;;;;3.33;3.05;;;;;;;;;;5053420;28;20483;-48
2021/01/31 04:42:17;;;;;;;4.45;3.00;;;;;;;;;;5054623;28;20179;-48
2021/01/31 04:44:43;;;;;;;3.10;2.80;;;;;;;;;;5072705;28;20174;-48
2021/01/31 04:47:21;;;;;;;3.15;2.83;;;;;;;;;;5065706;28;20657;-48
2021/01/31 04:50:02;;;;;;;2.97;2.75;;;;;;;;;;5060551;28;20220;-48
2021/01/31 04:52:38;;;;;;;3.00;2.80;;;;;;;;;;5060535;28;20233;-48
2021/01/31 04:55:06;;;;;;;3.38;3.08;;;;;;;;;;5070150;28;20186;-48
2021/01/31 04:57:40;;;;;;;3.20;2.90;;;;;;;;;;5072939;28;20410;-48
2021/01/31 05:00:08;;;;;;;3.42;3.13;;;;;;;;;;5073597;28;20166;-48
2021/01/31 05:02:38;;;;;;;3.05;2.75;;;;;;;;;;5061184;28;20194;-48
2021/01/31 05:05:14;;;;;;;3.10;2.80;;;;;;;;;;5071200;28;20194;-48
2021/01/31 05:07:45;;;;;;;3.15;2.90;;;;;;;;;;5059792;28;20186;-48
2021/01/31 05:10:12;;;;;;;2.63;2.42;;;;;;;;;;5059419;28;20201;-48
2021/01/31 05:12:58;;;;;;;3.22;2.92;;;;;;;;;;5055946;28;20182;-49
2021/01/31 05:15:31;;;;;;;3.03;2.63;;;;;;;;;;5057307;28;20195;-48
2021/01/31 05:17:59;;;;;;;3.05;2.75;;;;;;;;;;5069611;28;20201;-49
2021/01/31 05:20:27;;;;;;;3.30;2.83;;;;;;;;;;5053287;28;20270;-48
2021/01/31 05:22:55;;;;;;;2.70;2.50;;;;;;;;;;5061783;28;20178;-48
2021/01/31 05:25:22;;;;;;;2.95;2.75;;;;;;;;;;5072540;28;20280;-49
2021/01/31 05:27:49;;;;;;;2.85;2.65;;;;;;;;;;5054777;28;20243;-48
2021/01/31 05:30:16;;;;;;;2.70;2.50;;;;;;;;;;5052822;28;20226;-48
2021/01/31 05:33:01;;;;;;;3.10;2.80;;;;;;;;;;5053740;28;20265;-48
2021/01/31 05:35:28;;;;;;;2.83;2.63;;;;;;;;;;5061421;28;20186;-48
2021/01/31 05:37:54;;;;;;;3.28;2.97;;;;;;;;;;5052556;28;20206;-48
2021/01/31 05:40:40;;;;;;;2.88;2.67;;;;;;;;;;5052737;28;20445;-48
2021/01/31 05:43:07;;;;;;;2.70;2.50;;;;;;;;;;5059378;28;20255;-48
2021/01/31 05:45:36;;;;;;;3.05;2.78;;;;;;;;;;5072215;28;20285;-48
2021/01/31 05:48:14;;;;;;;3.22;2.92;;;;;;;;;;5061084;28;20499;-48
2021/01/31 05:50:42;;;;;;;3.80;3.28;;;;;;;;;;5067778;28;20220;-48
2021/01/31 05:53:24;;;;;;;3.03;2.72;;;;;;;;;;5056386;28;20236;-49
2021/01/31 05:55:50;;;;;;;3.25;2.95;;;;;;;;;;5052261;28;20179;-48
2021/01/31 05:58:21;;;;;;;3.15;2.80;;;;;;;;;;5072911;28;20209;-48
2021/01/31 06:00:48;;;;;;;3.72;2.95;;;;;;;;;;5071945;28;20211;-48
2021/01/31 06:03:19;;;;;;;3.15;2.65;;;;;;;;;;5056190;28;20451;-48
2021/01/31 06:05:46;;;;;;;3.20;2.92;;;;;;;;;;5063232;28;20215;-48
2021/01/31 06:08:29;;;;;;;2.53;2.33;;;;;;;;;;5059523;28;20249;-48
2021/01/31 06:11:03;;;;;;;3.22;2.92;;;;;;;;;;5068831;28;20565;-48
2021/01/31 06:13:29;;;;;;;3.17;2.88;;;;;;;;;;5062321;28;20225;-49
2021/01/31 06:16:00;;;;;;;2.47;2.30;;;;;;;;;;5061595;28;20843;-50
2021/01/31 06:18:28;;;;;;;3.88;2.65;;;;;;;;;;5058432;28;20873;-48
2021/01/31 06:21:07;;;;;;;3.42;2.70;;;;;;;;;;5054248;28;20187;-48
2021/01/31 06:23:37;;;;;;;3.80;2.70;;;;;;;;;;5059560;28;20187;-48
2021/01/31 06:26:04;;;;;;;3.55;2.95;;;;;;;;;;5053950;28;20199;-48
2021/01/31 06:28:41;;;;;;;3.80;2.92;;;;;;;;;;5072615;28;20185;-48
2021/01/31 06:31:18;;;;;;;2.67;2.47;;;;;;;;;;5053036;28;20190;-48
2021/01/31 06:33:45;;;;;;;2.85;2.63;;;;;;;;;;5061189;28;20182;-48
2021/01/31 06:36:17;;;;;;;3.42;2.80;;;;;;;;;;5071760;28;20566;-48
2021/01/31 06:39:02;;;;;;;3.10;2.80;;;;;;;;;;5071987;28;20182;-48
2021/01/31 06:41:50;;;;;;;2.95;2.75;;;;;;;;;;5070780;28;20183;-48
2021/01/31 06:44:15;;;;;;;3.05;2.75;;;;;;;;;;5053672;28;20274;-48
2021/01/31 06:46:58;;;;;;;2.53;2.33;;;;;;;;;;5052044;28;20532;-48
2021/01/31 06:49:32;;;;;;;3.88;3.20;;;;;;;;;;5064692;28;20182;-48
2021/01/31 06:52:01;;;;;;;3.08;2.78;;;;;;;;;;5054748;28;20244;-48
2021/01/31 06:54:39;;;;;;;5.50;3.20;;;;;;;;;;5055797;28;20179;-48
2021/01/31 06:57:14;;;;;;;5.50;3.15;;;;;;;;;;5069123;28;20182;-48
2021/01/31 06:59:59;;;;;;;7.68;3.47;;;;;;;;;;5074985;28;20182;-48
2021/01/31 07:02:43;;;;;;;5.47;4.25;;;;;;;;;;5055918;28;20203;-48
2021/01/31 07:05:44;;;;;;;16.98;11.02;;;;;;;;;;5075060;28;20186;-49
2021/01/31 07:08:26;;;;;;;20.23;12.75;;;;;;;;;;5012952;28;20215;-49
2021/01/31 07:11:12;;;;;;;18.38;12.32;;;;;;;;;;5052379;28;20197;-48
2021/01/31 07:13:44;;;;;;;17.65;11.73;;;;;;;;;;5055206;28;20282;-48
2021/01/31 07:16:20;;;;;;;20.98;12.15;;;;;;;;;;5070628;28;20178;-48
2021/01/31 07:18:49;;;;;;;16.30;12.35;;;;;;;;;;5058840;28;20191;-48
2021/01/31 07:21:18;;;;;;;16.88;11.77;;;;;;;;;;5074235;28;20220;-48
2021/01/31 07:23:46;;;;;;;21.05;12.25;;;;;;;;;;5074793;28;20182;-52
2021/01/31 07:26:39;;;;;;;17.38;11.70;;;;;;;;;;5070492;28;20549;-50
2021/01/31 07:29:07;;;;;;;18.35;11.18;;;;;;;;;;5069997;28;20197;-51
2021/01/31 07:31:37;;;;;;;20.20;11.32;;;;;;;;;;5070535;28;20167;-50
2021/01/31 07:34:12;;;;;;;16.75;10.32;;;;;;;;;;5069781;28;20589;-52
2021/01/31 07:36:54;;;;;;;17.08;10.35;;;;;;;;;;5069658;28;20182;-55
2021/01/31 07:39:30;;;;;;;16.80;9.93;;;;;;;;;;5070399;28;20281;-51
2021/01/31 07:41:57;;;;;;;18.02;10.75;;;;;;;;;;5070041;28;20203;-54
2021/01/31 07:44:25;;;;;;;23.65;10.13;;;;;;;;;;5069706;28;20320;-54
2021/01/31 07:46:55;;;;;;;20.63;10.55;;;;;;;;;;5069225;28;20186;-48
2021/01/31 07:51:27;;;;;;;18.63;10.45;;;;;;;;;;5069876;28;20614;-51
2021/01/31 07:53:54;;;;;;;16.63;10.35;;;;;;;;;;5053099;28;20454;-50
2021/01/31 07:56:34;;;;;;;16.45;9.68;;;;;;;;;;5038627;28;20195;-51
2021/01/31 07:59:21;;;;;;;15.77;8.98;;;;;;;;;;5030254;28;20191;-50
2021/01/31 08:01:52;;;;;;;17.02;9.82;;;;;;;;;;5033598;28;20203;-50
2021/01/31 08:04:17;;;;;;;14.70;9.85;;;;;;;;;;5041964;28;20278;-51
2021/01/31 08:06:43;;;;;;;13.48;9.02;;;;;;;;;;5048421;28;20278;-51
2021/01/31 08:09:28;;;;;;;14.30;9.07;;;;;;;;;;5049874;28;20207;-51
2021/01/31 08:11:57;;;;;;;12.93;9.40;;;;;;;;;;5047486;28;20592;-51
2021/01/31 08:14:42;;;;;;;15.15;9.13;;;;;;;;;;5049211;28;20184;-50
2021/01/31 08:17:08;;;;;;;13.35;8.57;;;;;;;;;;5049394;28;20207;-50
2021/01/31 08:19:34;;;;;;;13.82;8.70;;;;;;;;;;5049081;28;20194;-50
2021/01/31 08:22:11;;;;;;;11.50;7.85;;;;;;;;;;5047979;28;20273;-50
2021/01/31 08:24:56;;;;;;;11.15;8.10;;;;;;;;;;5048554;28;20171;-50
2021/01/31 08:27:40;;;;;;;14.38;7.82;;;;;;;;;;5049610;28;20191;-50
2021/01/31 08:30:12;;;;;;;11.27;7.78;;;;;;;;;;5049578;28;20207;-50
2021/01/31 08:32:58;;;;;;;14.75;8.32;;;;;;;;;;5049154;28;20875;-50
2021/01/31 08:35:45;;;;;;;10.77;7.78;;;;;;;;;;5049169;28;20199;-50
2021/01/31 08:38:14;;;;;;;12.60;8.65;;;;;;;;;;5045744;28;20230;-50
2021/01/31 08:40:40;;;;;;;10.15;7.55;;;;;;;;;;5049032;28;20226;-50
2021/01/31 08:43:08;;;;;;;10.75;7.65;;;;;;;;;;5044866;28;20224;-51
2021/01/31 08:45:42;;;;;;;12.95;7.55;;;;;;;;;;5037384;28;20246;-51
2021/01/31 08:48:08;;;;;;;10.45;7.25;;;;;;;;;;5036067;28;20187;-51
2021/01/31 08:50:34;;;;;;;12.52;7.30;;;;;;;;;;5034635;28;20273;-51
2021/01/31 08:53:01;;;;;;;12.85;7.55;;;;;;;;;;5031748;28;20180;-51
2021/01/31 08:55:27;;;;;;;12.48;7.63;;;;;;;;;;5029114;28;20184;-52
2021/01/31 08:57:57;;;;;;;13.27;7.70;;;;;;;;;;5028706;28;20184;-53
2021/01/31 09:00:24;;;;;;;9.65;6.82;;;;;;;;;;5028800;28;20200;-51
2021/01/31 09:02:50;;;;;;;10.93;6.53;;;;;;;;;;5014240;28;20207;-51
2021/01/31 09:05:18;;;;;;;10.38;6.78;;;;;;;;;;5015653;28;20188;-51
2021/01/31 09:07:45;;;;;;;9.75;7.30;;;;;;;;;;5015049;28;20271;-51
2021/01/31 09:10:30;;;;;;;10.18;6.65;;;;;;;;;;5010795;28;20212;-51
2021/01/31 09:13:14;;;;;;;10.18;6.32;;;;;;;;;;5015672;28;20173;-51
2021/01/31 09:15:40;;;;;;;14.07;6.35;;;;;;;;;;5014419;28;20226;-51
2021/01/31 09:18:07;;;;;;;8.25;6.63;;;;;;;;;;5004525;28;20199;-51
2021/01/31 09:20:33;;;;;;;8.95;6.88;;;;;;;;;;5016075;28;20180;-51
2021/01/31 09:23:01;;;;;;;10.68;7.15;;;;;;;;;;5013986;28;20188;-51
2021/01/31 09:25:27;;;;;;;9.27;6.78;;;;;;;;;;5002891;28;20292;-51
2021/01/31 09:28:04;;;;;;;8.30;6.65;;;;;;;;;;5008766;28;20188;-51
2021/01/31 09:30:31;;;;;;;9.05;6.35;;;;;;;;;;5015282;28;20645;-51
2021/01/31 09:33:08;;;;;;;8.35;6.50;;;;;;;;;;5014889;28;20804;-51
2021/01/31 09:35:36;;;;;;;10.63;6.10;;;;;;;;;;5005533;28;20556;-51
2021/01/31 09:38:31;;;;;;;9.30;6.22;;;;;;;;;;5015384;28;20192;-51
2021/01/31 09:40:58;;;;;;;8.48;6.03;;;;;;;;;;4986901;28;20561;-51
2021/01/31 09:43:26;;;;;;;8.32;6.15;;;;;;;;;;4995924;28;20276;-51
2021/01/31 09:45:54;;;;;;;7.72;6.25;;;;;;;;;;4998127;28;20226;-51
2021/01/31 09:48:22;;;;;;;8.85;6.10;;;;;;;;;;5015173;28;20457;-51
2021/01/31 09:50:51;;;;;;;8.50;5.95;;;;;;;;;;5013949;28;20266;-51
2021/01/31 09:53:19;;;;;;;7.22;5.70;;;;;;;;;;5028244;28;20241;-51
2021/01/31 09:55:45;;;;;;;7.60;5.85;;;;;;;;;;5032902;28;20593;-51
2021/01/31 09:58:22;;;;;;;7.75;5.63;;;;;;;;;;5006702;28;20189;-50
2021/01/31 10:00:48;;;;;;;6.80;5.68;;;;;;;;;;4994740;28;20196;-51
2021/01/31 10:03:26;;;;;;;8.93;6.00;;;;;;;;;;5007228;28;20610;-51
2021/01/31 10:06:08;;;;;;;6.30;5.40;;;;;;;;;;5013953;28;20199;-50
2021/01/31 10:08:35;;;;;;;7.45;6.15;;;;;;;;;;5013439;28;20210;-51
2021/01/31 10:11:19;;;;;;;6.40;5.30;;;;;;;;;;5008032;28;20208;-50
2021/01/31 10:13:45;;;;;;;7.55;5.65;;;;;;;;;;5012716;28;20184;-50
2021/01/31 10:16:19;;;;;;;7.28;5.63;;;;;;;;;;5013921;28;20188;-50
2021/01/31 10:18:45;;;;;;;6.90;5.60;;;;;;;;;;5013728;28;20226;-50
2021/01/31 10:21:14;;;;;;;6.50;5.63;;;;;;;;;;5014354;28;20216;-50
2021/01/31 10:23:40;;;;;;;7.22;5.60;;;;;;;;;;5013570;28;20271;-50
2021/01/31 10:26:07;;;;;;;7.28;5.40;;;;;;;;;;5013708;28;20568;-51
2021/01/31 10:28:37;;;;;;;7.63;5.43;;;;;;;;;;5014498;28;20195;-51
2021/01/31 10:31:04;;;;;;;7.30;5.78;;;;;;;;;;5007017;28;20223;-51
2021/01/31 10:33:36;;;;;;;5.78;5.05;;;;;;;;;;5003881;28;20595;-50
2021/01/31 10:36:34;;;;;;;7.88;5.45;;;;;;;;;;5013798;28;20180;-50
2021/01/31 10:39:02;;;;;;;5.47;4.90;;;;;;;;;;4991909;28;20254;-50
2021/01/31 10:41:28;;;;;;;5.93;5.00;;;;;;;;;;5014546;28;20189;-50
2021/01/31 10:43:55;;;;;;;7.45;5.43;;;;;;;;;;5013790;28;20175;-50
2021/01/31 10:46:21;;;;;;;5.65;4.78;;;;;;;;;;5012262;28;20247;-50
2021/01/31 10:48:47;;;;;;;6.63;5.68;;;;;;;;;;5013475;28;21067;-50
2021/01/31 10:51:13;;;;;;;6.45;4.82;;;;;;;;;;5013592;28;20215;-51
2021/01/31 10:53:39;;;;;;;6.18;4.97;;;;;;;;;;5030623;28;20253;-51
2021/01/31 10:56:06;;;;;;;5.63;4.97;;;;;;;;;;5013658;28;20782;-51
2021/01/31 10:58:32;;;;;;;5.68;5.07;;;;;;;;;;5013970;28;20424;-51
2021/01/31 11:00:58;;;;;;;5.78;5.03;;;;;;;;;;5013659;28;20548;-50
2021/01/31 11:03:24;;;;;;;5.53;4.90;;;;;;;;;;5012639;28;20207;-51
2021/01/31 11:05:50;;;;;;;5.85;4.85;;;;;;;;;;5012530;28;20235;-51
2021/01/31 11:08:16;;;;;;;5.55;4.88;;;;;;;;;;5013845;28;20188;-51
2021/01/31 11:10:42;;;;;;;4.88;4.35;;;;;;;;;;5013022;28;20208;-50
2021/01/31 11:13:08;;;;;;;5.30;4.78;;;;;;;;;;5014152;28;20184;-50
2021/01/31 11:15:34;;;;;;;5.45;4.82;;;;;;;;;;5013486;28;20602;-50
2021/01/31 11:18:00;;;;;;;5.82;5.00;;;;;;;;;;5012988;28;20173;-50
2021/01/31 11:20:26;;;;;;;5.40;4.72;;;;;;;;;;5011498;28;20271;-52
2021/01/31 11:22:52;;;;;;;4.95;4.45;;;;;;;;;;5012407;28;20284;-51
2021/01/31 11:25:18;;;;;;;5.40;4.60;;;;;;;;;;5013007;28;20630;-51
2021/01/31 11:27:44;;;;;;;5.88;5.00;;;;;;;;;;5012727;28;20188;-51
2021/01/31 11:30:10;;;;;;;5.28;4.78;;;;;;;;;;5013337;28;20249;-51
2021/01/31 11:32:36;;;;;;;5.15;4.40;;;;;;;;;;5012904;28;20576;-51
2021/01/31 11:35:03;;;;;;;5.32;4.50;;;;;;;;;;5012844;28;20246;-51
2021/01/31 11:37:29;;;;;;;5.15;4.65;;;;;;;;;;5012394;28;20596;-51
2021/01/31 11:39:55;;;;;;;6.32;4.30;;;;;;;;;;5002628;28;20308;-51
2021/01/31 11:42:21;;;;;;;6.22;3.88;;;;;;;;;;4993969;28;20572;-51
2021/01/31 11:44:47;;;;;;;4.30;3.90;;;;;;;;;;5003552;28;20200;-51
2021/01/31 11:47:13;;;;;;;4.80;4.30;;;;;;;;;;5013305;28;20243;-51
2021/01/31 11:49:39;;;;;;;5.60;4.20;;;;;;;;;;5012054;28;20630;-51
2021/01/31 11:52:05;;;;;;;4.88;4.25;;;;;;;;;;5019438;28;20200;-51
2021/01/31 11:54:31;;;;;;;4.88;4.38;;;;;;;;;;5011890;28;20611;-51
2021/01/31 11:56:57;;;;;;;4.25;3.85;;;;;;;;;;5012202;28;20184;-51
2021/01/31 11:59:23;;;;;;;5.18;3.97;;;;;;;;;;5013087;28;20180;-51
2021/01/31 12:01:49;;;;;;;4.72;4.13;;;;;;;;;;5012367;28;20204;-51
2021/01/31 12:04:15;;;;;;;4.68;4.05;;;;;;;;;;5012306;28;20199;-51
2021/01/31 12:06:41;;;;;;;4.70;4.20;;;;;;;;;;5012578;28;20180;-51
2021/01/31 12:09:06;;;;;;;9.57;4.85;;;;;;;;;;5012137;28;20192;-51
2021/01/31 12:11:32;;;;;;;13.20;6.95;;;;;;;;;;4999095;28;20184;-50
2021/01/31 12:13:58;;;;;;;25.42;10.80;;;;;;;;;;5012528;28;20230;-51
2021/01/31 12:16:25;;;;;;;36.17;15.45;;;;;;;;;;5004726;28;20182;-51
2021/01/31 12:18:51;;;;;;;54.47;19.70;;;;;;;;;;5012231;28;20193;-51
2021/01/31 12:21:17;;;;;;;77.22;27.80;;;;;;;;;;5012741;28;20177;-51
2021/01/31 12:23:43;;;;;;;80.28;29.33;;;;;;;;;;5011754;28;20185;-51
2021/01/31 12:26:09;;;;;;;93.00;30.92;;;;;;;;;;5007742;28;20184;-51
2021/01/31 12:28:35;;;;;;;91.47;33.38;;;;;;;;;;5013038;28;20180;-51
2021/01/31 12:31:01;;;;;;;86.80;33.00;;;;;;;;;;5012921;28;20211;-51
2021/01/31 12:33:27;;;;;;;86.93;33.38;;;;;;;;;;5012954;28;20587;-51
2021/01/31 12:35:53;;;;;;;99.10;36.22;;;;;;;;;;5011517;28;20195;-51
2021/01/31 12:38:19;;;;;;;85.60;34.22;;;;;;;;;;5016449;28;20188;-51
2021/01/31 12:40:45;;;;;;;91.85;34.28;;;;;;;;;;5015519;28;20204;-51
2021/01/31 12:43:11;;;;;;;90.57;33.90;;;;;;;;;;5016098;28;20223;-51
2021/01/31 12:45:37;;;;;;;82.32;31.65;;;;;;;;;;5015390;28;20207;-50
2021/01/31 12:48:04;;;;;;;79.55;29.50;;;;;;;;;;5015720;28;20188;-51
2021/01/31 12:50:30;;;;;;;79.85;30.92;;;;;;;;;;5016463;28;20287;-51
2021/01/31 12:52:56;;;;;;;74.03;29.90;;;;;;;;;;5015193;28;20199;-52
2021/01/31 12:55:23;;;;;;;67.07;28.00;;;;;;;;;;5015491;28;20287;-51
2021/01/31 12:57:49;;;;;;;72.40;26.65;;;;;;;;;;5015740;28;20230;-51
2021/01/31 13:00:16;;;;;;;67.18;26.95;;;;;;;;;;5015775;28;20499;-51
2021/01/31 13:02:42;;;;;;;68.50;27.02;;;;;;;;;;5015455;28;21764;-51
2021/01/31 13:05:09;;;;;;;61.35;25.75;;;;;;;;;;5015802;28;20259;-51
2021/01/31 13:07:35;;;;;;;62.17;24.80;;;;;;;;;;5016134;28;20191;-51
2021/01/31 13:10:01;;;;;;;54.35;24.27;;;;;;;;;;5015965;28;20529;-51
2021/01/31 13:12:27;;;;;;;55.40;24.13;;;;;;;;;;5000671;28;20185;-51
2021/01/31 13:14:53;;;;;;;50.40;22.40;;;;;;;;;;5014408;28;20227;-51
2021/01/31 13:17:19;;;;;;;49.90;22.13;;;;;;;;;;5016220;28;20188;-51
2021/01/31 13:19:45;;;;;;;48.28;22.65;;;;;;;;;;5014604;28;20188;-52
2021/01/31 13:22:12;;;;;;;47.75;20.92;;;;;;;;;;5015208;28;20189;-52
2021/01/31 13:24:38;;;;;;;44.95;22.55;;;;;;;;;;5014009;28;20180;-51
2021/01/31 13:27:04;;;;;;;47.65;21.73;;;;;;;;;;5014022;28;20197;-53
2021/01/31 13:29:30;;;;;;;39.00;19.27;;;;;;;;;;5015378;28;20246;-53
2021/01/31 13:31:56;;;;;;;45.67;20.88;;;;;;;;;;5015070;28;20192;-53
2021/01/31 13:34:22;;;;;;;49.55;20.63;;;;;;;;;;5014317;28;20196;-53
2021/01/31 13:36:48;;;;;;;40.90;19.23;;;;;;;;;;5014798;28;20177;-53
2021/01/31 13:39:14;;;;;;;36.78;18.00;;;;;;;;;;5015074;28;20184;-53
2021/01/31 13:41:40;;;;;;;42.40;18.73;;;;;;;;;;5015201;28;20180;-53
2021/01/31 13:44:06;;;;;;;36.05;18.40;;;;;;;;;;5013054;28;20267;-53
2021/01/31 13:46:33;;;;;;;41.38;18.20;;;;;;;;;;5015095;28;20266;-53
2021/01/31 13:48:59;;;;;;;37.38;18.95;;;;;;;;;;5014022;28;20173;-53
2021/01/31 13:51:25;;;;;;;39.55;16.85;;;;;;;;;;5015787;28;20185;-53
2021/01/31 13:53:51;;;;;;;34.63;16.67;;;;;;;;;;5031478;28;20195;-53
2021/01/31 13:56:18;;;;;;;42.67;17.45;;;;;;;;;;5014943;28;20191;-53
2021/01/31 13:58:44;;;;;;;34.95;15.70;;;;;;;;;;5014051;28;20215;-53
2021/01/31 14:01:10;;;;;;;35.28;16.55;;;;;;;;;;5014370;28;20212;-53
2021/01/31 14:03:35;;;;;;;33.13;15.35;;;;;;;;;;5014760;28;20181;-53
2021/01/31 14:06:01;;;;;;;30.70;15.38;;;;;;;;;;5013916;28;20184;-53
2021/01/31 14:08:27;;;;;;;32.55;16.60;;;;;;;;;;5015183;28;20176;-52
2021/01/31 14:10:53;;;;;;;29.35;14.77;;;;;;;;;;5014312;28;20501;-52
2021/01/31 14:13:19;;;;;;;32.13;15.02;;;;;;;;;;5014715;28;20176;-52
2021/01/31 14:15:45;;;;;;;31.10;14.07;;;;;;;;;;5012812;28;20184;-52
2021/01/31 14:18:11;;;;;;;32.67;15.10;;;;;;;;;;5001603;28;20188;-52
2021/01/31 14:20:37;;;;;;;31.88;14.85;;;;;;;;;;5013782;28;20195;-52
2021/01/31 14:23:04;;;;;;;26.95;13.88;;;;;;;;;;5013610;28;20196;-52
2021/01/31 14:25:30;;;;;;;27.92;14.13;;;;;;;;;;5014042;28;20184;-52
2021/01/31 14:27:56;;;;;;;28.38;13.93;;;;;;;;;;5013738;28;20184;-52
2021/01/31 14:30:24;;;;;;;29.95;13.90;;;;;;;;;;5014187;28;20208;-52
2021/01/31 14:32:50;;;;;;;27.13;13.45;;;;;;;;;;5013530;28;20218;-51
2021/01/31 14:35:17;;;;;;;25.67;13.32;;;;;;;;;;5013386;28;20192;-51
2021/01/31 14:37:43;;;;;;;25.48;13.07;;;;;;;;;;5013400;28;20532;-51
2021/01/31 14:40:09;;;;;;;26.98;12.75;;;;;;;;;;5014528;28;20227;-51
2021/01/31 14:42:35;;;;;;;29.58;12.95;;;;;;;;;;5013885;28;20434;-51
2021/01/31 14:45:02;;;;;;;22.55;12.48;;;;;;;;;;5012146;28;20333;-51
2021/01/31 14:47:27;;;;;;;25.20;12.85;;;;;;;;;;5013378;28;20568;-51
2021/01/31 14:49:53;;;;;;;24.52;12.32;;;;;;;;;;5008569;28;20263;-51
2021/01/31 14:52:21;;;;;;;23.52;11.60;;;;;;;;;;5013912;28;20618;-51